New Stanton, Pennsylvania
Current Conditions -  °F | °C
As of 3:50 PM on Friday 19 Dec 2014 (Local Time) from KLBE Reporting Station
Overcast Overcast  
Wind Chill: 23°   Ceiling: 3000
Heat Index: 32°   Visibility: 20mi
Dew Point: 23°   Wind: 12mph
Humidity: 69%   Direction: 300°WNW
Pressure: 30.21"   Gusts: NA
Location:  40.22°N, 79.61°W
Report Text: KLBE 192050Z 30010KT 20SM OVC030 00/M05 A3021
Loading
Personal Weather Stations






























Interactive Weather Map New forecast layout! Learn more

10-Day Weather Forecast

Advertisements
Track Severe Weather on mobile